sensor_id;sensor_type;location;lat;lon;timestamp;temperature;humidity
15409;DHT22;7803;48.130;13.788;2023-10-13T00:01:37;24.10;99.90
15409;DHT22;7803;48.130;13.788;2023-10-13T00:04:40;24.00;99.90
15409;DHT22;7803;48.130;13.788;2023-10-13T00:07:42;24.00;99.80
15409;DHT22;7803;48.130;13.788;2023-10-13T00:10:45;24.00;99.80
15409;DHT22;7803;48.130;13.788;2023-10-13T00:13:49;24.00;99.70
15409;DHT22;7803;48.130;13.788;2023-10-13T00:16:52;24.10;99.80
15409;DHT22;7803;48.130;13.788;2023-10-13T00:20:05;24.00;99.50
15409;DHT22;7803;48.130;13.788;2023-10-13T00:23:13;24.00;99.20
15409;DHT22;7803;48.130;13.788;2023-10-13T00:26:15;24.00;98.80
15409;DHT22;7803;48.130;13.788;2023-10-13T00:29:20;24.00;98.70
15409;DHT22;7803;48.130;13.788;2023-10-13T00:32:30;24.00;98.50
15409;DHT22;7803;48.130;13.788;2023-10-13T00:35:32;24.00;98.20
15409;DHT22;7803;48.130;13.788;2023-10-13T00:38:37;24.00;98.00
15409;DHT22;7803;48.130;13.788;2023-10-13T00:41:40;24.00;97.80
15409;DHT22;7803;48.130;13.788;2023-10-13T00:44:54;24.00;97.60
15409;DHT22;7803;48.130;13.788;2023-10-13T00:47:56;24.00;97.40
15409;DHT22;7803;48.130;13.788;2023-10-13T00:50:58;24.00;97.20
15409;DHT22;7803;48.130;13.788;2023-10-13T00:54:05;24.00;97.10
15409;DHT22;7803;48.130;13.788;2023-10-13T00:57:12;24.00;96.80
15409;DHT22;7803;48.130;13.788;2023-10-13T01:00:28;24.00;96.60
15409;DHT22;7803;48.130;13.788;2023-10-13T01:03:30;23.90;96.50
15409;DHT22;7803;48.130;13.788;2023-10-13T01:06:32;23.90;96.40
15409;DHT22;7803;48.130;13.788;2023-10-13T01:09:40;23.90;96.60
15409;DHT22;7803;48.130;13.788;2023-10-13T01:12:43;23.90;96.80
15409;DHT22;7803;48.130;13.788;2023-10-13T01:15:47;24.00;96.80
15409;DHT22;7803;48.130;13.788;2023-10-13T01:18:50;23.90;97.10
15409;DHT22;7803;48.130;13.788;2023-10-13T01:21:52;23.90;97.40
15409;DHT22;7803;48.130;13.788;2023-10-13T01:24:59;23.90;98.10
15409;DHT22;7803;48.130;13.788;2023-10-13T01:28:11;23.90;98.50
15409;DHT22;7803;48.130;13.788;2023-10-13T01:31:16;23.90;98.50
15409;DHT22;7803;48.130;13.788;2023-10-13T01:34:27;23.90;98.40
15409;DHT22;7803;48.130;13.788;2023-10-13T01:37:33;23.90;98.20
15409;DHT22;7803;48.130;13.788;2023-10-13T01:40:37;23.90;98.10
15409;DHT22;7803;48.130;13.788;2023-10-13T01:43:39;23.90;98.10
15409;DHT22;7803;48.130;13.788;2023-10-13T01:46:41;23.90;98.10
15409;DHT22;7803;48.130;13.788;2023-10-13T01:49:45;23.90;97.80
15409;DHT22;7803;48.130;13.788;2023-10-13T01:52:52;23.90;96.70
15409;DHT22;7803;48.130;13.788;2023-10-13T01:56:20;23.90;97.00
15409;DHT22;7803;48.130;13.788;2023-10-13T01:59:23;23.90;97.50
15409;DHT22;7803;48.130;13.788;2023-10-13T02:02:24;23.90;97.80
15409;DHT22;7803;48.130;13.788;2023-10-13T02:05:30;23.90;97.80
15409;DHT22;7803;48.130;13.788;2023-10-13T02:08:36;23.90;97.80
15409;DHT22;7803;48.130;13.788;2023-10-13T02:11:44;23.90;97.80
15409;DHT22;7803;48.130;13.788;2023-10-13T02:14:47;23.90;98.20
15409;DHT22;7803;48.130;13.788;2023-10-13T02:17:48;23.90;98.10
15409;DHT22;7803;48.130;13.788;2023-10-13T02:20:52;23.90;97.60
15409;DHT22;7803;48.130;13.788;2023-10-13T02:23:56;23.90;96.70
15409;DHT22;7803;48.130;13.788;2023-10-13T02:27:02;23.90;96.60
15409;DHT22;7803;48.130;13.788;2023-10-13T02:30:06;23.90;97.20
15409;DHT22;7803;48.130;13.788;2023-10-13T02:33:14;23.90;97.60
15409;DHT22;7803;48.130;13.788;2023-10-13T02:36:23;23.90;97.70
15409;DHT22;7803;48.130;13.788;2023-10-13T02:39:36;23.90;97.90
15409;DHT22;7803;48.130;13.788;2023-10-13T02:42:43;23.90;98.30
15409;DHT22;7803;48.130;13.788;2023-10-13T02:45:52;23.90;98.30
15409;DHT22;7803;48.130;13.788;2023-10-13T02:48:58;23.90;98.70
15409;DHT22;7803;48.130;13.788;2023-10-13T02:52:03;23.90;98.90
15409;DHT22;7803;48.130;13.788;2023-10-13T02:55:09;23.90;99.00
15409;DHT22;7803;48.130;13.788;2023-10-13T02:58:12;23.90;99.10
15409;DHT22;7803;48.130;13.788;2023-10-13T03:01:15;23.80;99.40
15409;DHT22;7803;48.130;13.788;2023-10-13T03:04:20;23.90;99.50
15409;DHT22;7803;48.130;13.788;2023-10-13T03:07:26;23.80;99.60
15409;DHT22;7803;48.130;13.788;2023-10-13T03:10:29;23.90;99.70
15409;DHT22;7803;48.130;13.788;2023-10-13T03:13:31;23.90;99.90
15409;DHT22;7803;48.130;13.788;2023-10-13T03:16:34;23.80;99.90
15409;DHT22;7803;48.130;13.788;2023-10-13T03:19:37;23.80;99.90
15409;DHT22;7803;48.130;13.788;2023-10-13T03:22:40;23.80;99.90
15409;DHT22;7803;48.130;13.788;2023-10-13T03:25:45;23.90;99.90
15409;DHT22;7803;48.130;13.788;2023-10-13T03:28:52;23.80;99.90
15409;DHT22;7803;48.130;13.788;2023-10-13T03:31:57;23.80;99.90
15409;DHT22;7803;48.130;13.788;2023-10-13T03:35:07;23.80;99.90
15409;DHT22;7803;48.130;13.788;2023-10-13T03:38:13;23.80;99.90
15409;DHT22;7803;48.130;13.788;2023-10-13T03:41:21;23.80;99.90
15409;DHT22;7803;48.130;13.788;2023-10-13T03:44:26;23.80;99.90
15409;DHT22;7803;48.130;13.788;2023-10-13T03:47:31;23.80;99.90
15409;DHT22;7803;48.130;13.788;2023-10-13T03:50:34;23.80;99.90
15409;DHT22;7803;48.130;13.788;2023-10-13T03:53:37;23.80;99.90
15409;DHT22;7803;48.130;13.788;2023-10-13T03:56:53;23.80;99.90
15409;DHT22;7803;48.130;13.788;2023-10-13T03:59:58;23.80;99.90
15409;DHT22;7803;48.130;13.788;2023-10-13T04:03:08;23.70;99.90
15409;DHT22;7803;48.130;13.788;2023-10-13T04:06:11;23.80;99.90
15409;DHT22;7803;48.130;13.788;2023-10-13T04:09:18;23.70;99.90
15409;DHT22;7803;48.130;13.788;2023-10-13T04:12:52;23.80;99.90
15409;DHT22;7803;48.130;13.788;2023-10-13T04:16:27;23.70;99.90
15409;DHT22;7803;48.130;13.788;2023-10-13T04:19:52;23.70;99.90
15409;DHT22;7803;48.130;13.788;2023-10-13T04:23:08;23.70;99.90
15409;DHT22;7803;48.130;13.788;2023-10-13T04:26:26;23.70;99.90
15409;DHT22;7803;48.130;13.788;2023-10-13T04:29:37;23.70;99.90
15409;DHT22;7803;48.130;13.788;2023-10-13T04:32:57;23.70;99.90
15409;DHT22;7803;48.130;13.788;2023-10-13T04:36:18;23.70;99.90
15409;DHT22;7803;48.130;13.788;2023-10-13T04:39:37;23.70;99.90
15409;DHT22;7803;48.130;13.788;2023-10-13T04:42:40;23.70;99.90
15409;DHT22;7803;48.130;13.788;2023-10-13T04:45:51;23.70;99.90
15409;DHT22;7803;48.130;13.788;2023-10-13T04:48:56;23.80;99.90
15409;DHT22;7803;48.130;13.788;2023-10-13T04:52:02;23.70;99.90
15409;DHT22;7803;48.130;13.788;2023-10-13T04:55:13;23.80;99.90
15409;DHT22;7803;48.130;13.788;2023-10-13T04:58:25;23.80;99.90
15409;DHT22;7803;48.130;13.788;2023-10-13T05:01:56;23.80;99.90
15409;DHT22;7803;48.130;13.788;2023-10-13T05:05:17;23.80;99.90
15409;DHT22;7803;48.130;13.788;2023-10-13T05:08:36;23.80;99.90
15409;DHT22;7803;48.130;13.788;2023-10-13T05:11:56;23.90;99.90
15409;DHT22;7803;48.130;13.788;2023-10-13T05:15:15;23.90;99.90
15409;DHT22;7803;48.130;13.788;2023-10-13T05:18:35;23.80;99.90
15409;DHT22;7803;48.130;13.788;2023-10-13T05:21:56;23.90;99.90
15409;DHT22;7803;48.130;13.788;2023-10-13T05:25:15;23.80;99.90
15409;DHT22;7803;48.130;13.788;2023-10-13T05:28:35;23.90;99.90
15409;DHT22;7803;48.130;13.788;2023-10-13T05:31:54;23.90;99.90
15409;DHT22;7803;48.130;13.788;2023-10-13T05:35:14;23.90;99.90
15409;DHT22;7803;48.130;13.788;2023-10-13T05:38:35;23.90;99.90
15409;DHT22;7803;48.130;13.788;2023-10-13T05:41:54;23.90;99.90
15409;DHT22;7803;48.130;13.788;2023-10-13T05:45:13;23.90;99.90
15409;DHT22;7803;48.130;13.788;2023-10-13T05:48:58;23.90;99.90
15409;DHT22;7803;48.130;13.788;2023-10-13T05:52:27;23.90;99.90
15409;DHT22;7803;48.130;13.788;2023-10-13T05:55:48;23.90;99.90
15409;DHT22;7803;48.130;13.788;2023-10-13T05:59:07;23.90;99.90
15409;DHT22;7803;48.130;13.788;2023-10-13T06:02:26;23.90;99.90
15409;DHT22;7803;48.130;13.788;2023-10-13T06:05:48;23.90;99.90
15409;DHT22;7803;48.130;13.788;2023-10-13T06:09:07;24.00;99.90
15409;DHT22;7803;48.130;13.788;2023-10-13T06:12:28;24.00;99.90
15409;DHT22;7803;48.130;13.788;2023-10-13T06:15:47;24.00;99.90
15409;DHT22;7803;48.130;13.788;2023-10-13T06:19:07;24.00;99.90
15409;DHT22;7803;48.130;13.788;2023-10-13T06:22:26;24.10;99.90
15409;DHT22;7803;48.130;13.788;2023-10-13T06:25:50;24.10;99.90
15409;DHT22;7803;48.130;13.788;2023-10-13T06:29:11;24.10;99.90
15409;DHT22;7803;48.130;13.788;2023-10-13T06:32:20;24.10;99.90
15409;DHT22;7803;48.130;13.788;2023-10-13T06:35:26;24.10;99.90
15409;DHT22;7803;48.130;13.788;2023-10-13T06:38:29;24.10;99.90
15409;DHT22;7803;48.130;13.788;2023-10-13T06:41:36;24.10;99.90
15409;DHT22;7803;48.130;13.788;2023-10-13T06:44:42;24.10;99.90
15409;DHT22;7803;48.130;13.788;2023-10-13T06:47:46;24.10;99.90
15409;DHT22;7803;48.130;13.788;2023-10-13T06:50:53;24.10;99.90
15409;DHT22;7803;48.130;13.788;2023-10-13T06:53:56;24.20;99.90
15409;DHT22;7803;48.130;13.788;2023-10-13T06:56:58;24.20;99.90
15409;DHT22;7803;48.130;13.788;2023-10-13T07:00:02;24.20;99.90
15409;DHT22;7803;48.130;13.788;2023-10-13T07:03:08;24.20;99.90
15409;DHT22;7803;48.130;13.788;2023-10-13T07:06:18;24.20;99.90
15409;DHT22;7803;48.130;13.788;2023-10-13T07:09:20;24.20;99.90
15409;DHT22;7803;48.130;13.788;2023-10-13T07:12:40;24.10;99.90
15409;DHT22;7803;48.130;13.788;2023-10-13T07:15:45;24.10;99.90
15409;DHT22;7803;48.130;13.788;2023-10-13T07:18:48;24.10;99.90
15409;DHT22;7803;48.130;13.788;2023-10-13T07:21:54;24.10;99.90
15409;DHT22;7803;48.130;13.788;2023-10-13T07:24:59;24.10;99.90
15409;DHT22;7803;48.130;13.788;2023-10-13T07:28:07;24.10;99.90
15409;DHT22;7803;48.130;13.788;2023-10-13T07:31:13;24.10;99.90
15409;DHT22;7803;48.130;13.788;2023-10-13T07:34:16;24.10;99.90
15409;DHT22;7803;48.130;13.788;2023-10-13T07:37:25;24.10;99.90
15409;DHT22;7803;48.130;13.788;2023-10-13T07:40:29;24.10;99.90
15409;DHT22;7803;48.130;13.788;2023-10-13T07:43:50;24.10;99.90
15409;DHT22;7803;48.130;13.788;2023-10-13T07:46:55;24.10;99.90
15409;DHT22;7803;48.130;13.788;2023-10-13T07:50:00;24.10;99.90
15409;DHT22;7803;48.130;13.788;2023-10-13T07:53:07;24.10;99.90
15409;DHT22;7803;48.130;13.788;2023-10-13T07:56:23;24.10;99.90
15409;DHT22;7803;48.130;13.788;2023-10-13T07:59:31;24.10;99.90
15409;DHT22;7803;48.130;13.788;2023-10-13T08:02:34;24.10;99.90
15409;DHT22;7803;48.130;13.788;2023-10-13T08:05:52;24.10;99.90
15409;DHT22;7803;48.130;13.788;2023-10-13T08:08:59;24.10;99.90
15409;DHT22;7803;48.130;13.788;2023-10-13T08:12:29;24.10;99.90
15409;DHT22;7803;48.130;13.788;2023-10-13T08:15:31;24.10;99.90
15409;DHT22;7803;48.130;13.788;2023-10-13T08:18:35;24.10;99.90
15409;DHT22;7803;48.130;13.788;2023-10-13T08:21:42;24.10;99.90
15409;DHT22;7803;48.130;13.788;2023-10-13T08:24:51;24.10;99.90
15409;DHT22;7803;48.130;13.788;2023-10-13T08:28:13;24.20;99.90
15409;DHT22;7803;48.130;13.788;2023-10-13T08:31:32;24.10;99.90
15409;DHT22;7803;48.130;13.788;2023-10-13T08:34:43;24.20;99.90
15409;DHT22;7803;48.130;13.788;2023-10-13T08:37:58;24.10;99.90
15409;DHT22;7803;48.130;13.788;2023-10-13T08:41:14;24.10;99.90
15409;DHT22;7803;48.130;13.788;2023-10-13T08:44:31;24.10;99.90
15409;DHT22;7803;48.130;13.788;2023-10-13T08:47:39;24.20;99.90
15409;DHT22;7803;48.130;13.788;2023-10-13T08:50:55;24.10;99.90
15409;DHT22;7803;48.130;13.788;2023-10-13T08:54:04;24.10;99.90
15409;DHT22;7803;48.130;13.788;2023-10-13T08:57:19;24.20;99.90
15409;DHT22;7803;48.130;13.788;2023-10-13T09:00:33;24.10;99.90
15409;DHT22;7803;48.130;13.788;2023-10-13T09:03:51;24.10;99.90
15409;DHT22;7803;48.130;13.788;2023-10-13T09:06:57;24.10;99.90
15409;DHT22;7803;48.130;13.788;2023-10-13T09:10:09;24.10;99.90
15409;DHT22;7803;48.130;13.788;2023-10-13T09:13:36;24.10;99.90
15409;DHT22;7803;48.130;13.788;2023-10-13T09:16:44;24.10;99.90
15409;DHT22;7803;48.130;13.788;2023-10-13T09:20:09;24.10;99.90
15409;DHT22;7803;48.130;13.788;2023-10-13T09:23:33;24.20;99.90
15409;DHT22;7803;48.130;13.788;2023-10-13T09:26:46;24.10;99.90
15409;DHT22;7803;48.130;13.788;2023-10-13T09:29:55;24.20;99.90
15409;DHT22;7803;48.130;13.788;2023-10-13T09:33:01;24.10;99.90
15409;DHT22;7803;48.130;13.788;2023-10-13T09:36:04;24.10;99.90
15409;DHT22;7803;48.130;13.788;2023-10-13T09:39:10;24.20;99.90
15409;DHT22;7803;48.130;13.788;2023-10-13T09:42:13;24.10;99.90
15409;DHT22;7803;48.130;13.788;2023-10-13T09:45:18;24.10;99.90
15409;DHT22;7803;48.130;13.788;2023-10-13T09:48:33;24.20;99.90
15409;DHT22;7803;48.130;13.788;2023-10-13T09:51:35;24.20;99.90
15409;DHT22;7803;48.130;13.788;2023-10-13T09:54:40;24.20;99.90
15409;DHT22;7803;48.130;13.788;2023-10-13T09:57:51;24.20;99.90
15409;DHT22;7803;48.130;13.788;2023-10-13T10:00:59;24.10;99.90
15409;DHT22;7803;48.130;13.788;2023-10-13T10:04:10;24.10;99.90
15409;DHT22;7803;48.130;13.788;2023-10-13T10:07:24;24.20;99.90
15409;DHT22;7803;48.130;13.788;2023-10-13T10:10:45;24.20;99.90
15409;DHT22;7803;48.130;13.788;2023-10-13T10:13:53;24.10;99.90
15409;DHT22;7803;48.130;13.788;2023-10-13T10:17:05;24.10;99.90
15409;DHT22;7803;48.130;13.788;2023-10-13T10:20:10;24.20;99.90
15409;DHT22;7803;48.130;13.788;2023-10-13T10:23:25;24.20;99.90
15409;DHT22;7803;48.130;13.788;2023-10-13T10:26:31;24.20;99.90
15409;DHT22;7803;48.130;13.788;2023-10-13T10:29:32;24.20;99.90
15409;DHT22;7803;48.130;13.788;2023-10-13T10:32:36;24.20;99.90
15409;DHT22;7803;48.130;13.788;2023-10-13T10:35:41;24.20;99.90
15409;DHT22;7803;48.130;13.788;2023-10-13T10:38:53;24.20;99.90
15409;DHT22;7803;48.130;13.788;2023-10-13T10:42:10;24.20;99.90
15409;DHT22;7803;48.130;13.788;2023-10-13T10:45:16;24.20;99.90
15409;DHT22;7803;48.130;13.788;2023-10-13T10:48:22;24.20;99.90
15409;DHT22;7803;48.130;13.788;2023-10-13T10:51:33;24.20;99.90
15409;DHT22;7803;48.130;13.788;2023-10-13T10:54:35;24.20;99.90
15409;DHT22;7803;48.130;13.788;2023-10-13T10:57:45;24.20;99.90
15409;DHT22;7803;48.130;13.788;2023-10-13T11:00:49;24.20;99.90
15409;DHT22;7803;48.130;13.788;2023-10-13T11:04:03;24.20;99.90
15409;DHT22;7803;48.130;13.788;2023-10-13T11:07:21;24.20;99.90
15409;DHT22;7803;48.130;13.788;2023-10-13T11:10:24;24.20;99.90
15409;DHT22;7803;48.130;13.788;2023-10-13T11:13:42;24.30;99.90
15409;DHT22;7803;48.130;13.788;2023-10-13T11:16:52;24.20;99.90
15409;DHT22;7803;48.130;13.788;2023-10-13T11:19:55;24.30;99.90
15409;DHT22;7803;48.130;13.788;2023-10-13T11:22:57;24.30;99.90
15409;DHT22;7803;48.130;13.788;2023-10-13T11:26:00;24.20;99.90
15409;DHT22;7803;48.130;13.788;2023-10-13T11:29:05;24.30;99.90
15409;DHT22;7803;48.130;13.788;2023-10-13T11:32:11;24.30;99.90
15409;DHT22;7803;48.130;13.788;2023-10-13T11:35:20;24.30;99.90
15409;DHT22;7803;48.130;13.788;2023-10-13T11:38:25;24.20;99.90
15409;DHT22;7803;48.130;13.788;2023-10-13T11:41:28;24.20;99.90
15409;DHT22;7803;48.130;13.788;2023-10-13T11:44:36;24.20;99.90
15409;DHT22;7803;48.130;13.788;2023-10-13T11:47:43;24.20;99.90
15409;DHT22;7803;48.130;13.788;2023-10-13T11:50:59;24.20;99.90
15409;DHT22;7803;48.130;13.788;2023-10-13T11:54:01;24.20;99.90
15409;DHT22;7803;48.130;13.788;2023-10-13T11:57:03;24.20;99.90
15409;DHT22;7803;48.130;13.788;2023-10-13T12:00:11;24.20;99.90
15409;DHT22;7803;48.130;13.788;2023-10-13T12:03:28;24.20;99.90
15409;DHT22;7803;48.130;13.788;2023-10-13T12:06:47;24.20;99.90
15409;DHT22;7803;48.130;13.788;2023-10-13T12:10:04;24.20;99.90
15409;DHT22;7803;48.130;13.788;2023-10-13T12:13:07;24.30;99.90
15409;DHT22;7803;48.130;13.788;2023-10-13T12:16:12;24.20;99.90
15409;DHT22;7803;48.130;13.788;2023-10-13T12:19:15;24.30;99.90
15409;DHT22;7803;48.130;13.788;2023-10-13T12:22:17;24.20;99.90
15409;DHT22;7803;48.130;13.788;2023-10-13T12:25:26;24.30;99.90
15409;DHT22;7803;48.130;13.788;2023-10-13T12:28:47;24.20;99.90
15409;DHT22;7803;48.130;13.788;2023-10-13T12:31:55;24.20;99.90
15409;DHT22;7803;48.130;13.788;2023-10-13T12:35:08;24.20;99.90
15409;DHT22;7803;48.130;13.788;2023-10-13T12:38:28;24.20;99.90
15409;DHT22;7803;48.130;13.788;2023-10-13T12:41:37;24.20;99.90
15409;DHT22;7803;48.130;13.788;2023-10-13T12:44:57;24.30;99.90
15409;DHT22;7803;48.130;13.788;2023-10-13T12:48:17;24.20;99.90
15409;DHT22;7803;48.130;13.788;2023-10-13T12:51:37;24.20;99.90
15409;DHT22;7803;48.130;13.788;2023-10-13T12:54:51;24.20;99.90
15409;DHT22;7803;48.130;13.788;2023-10-13T12:57:59;24.30;99.90
15409;DHT22;7803;48.130;13.788;2023-10-13T13:01:01;24.20;99.90
15409;DHT22;7803;48.130;13.788;2023-10-13T13:04:08;24.30;99.90
15409;DHT22;7803;48.130;13.788;2023-10-13T13:07:20;24.30;99.90
15409;DHT22;7803;48.130;13.788;2023-10-13T13:10:22;24.20;99.90
15409;DHT22;7803;48.130;13.788;2023-10-13T13:13:39;24.30;99.90
15409;DHT22;7803;48.130;13.788;2023-10-13T13:16:41;24.30;99.90
15409;DHT22;7803;48.130;13.788;2023-10-13T13:19:50;24.20;99.90
15409;DHT22;7803;48.130;13.788;2023-10-13T13:22:52;24.20;99.90
15409;DHT22;7803;48.130;13.788;2023-10-13T13:25:55;24.30;99.90
15409;DHT22;7803;48.130;13.788;2023-10-13T13:29:01;24.20;99.90
15409;DHT22;7803;48.130;13.788;2023-10-13T13:32:04;24.30;99.90
15409;DHT22;7803;48.130;13.788;2023-10-13T13:35:19;24.20;99.90
15409;DHT22;7803;48.130;13.788;2023-10-13T13:38:21;24.20;99.90
15409;DHT22;7803;48.130;13.788;2023-10-13T13:41:28;24.20;99.90
15409;DHT22;7803;48.130;13.788;2023-10-13T13:44:33;24.20;99.90
15409;DHT22;7803;48.130;13.788;2023-10-13T13:47:36;24.20;99.90
15409;DHT22;7803;48.130;13.788;2023-10-13T13:50:39;24.20;99.90
15409;DHT22;7803;48.130;13.788;2023-10-13T13:53:42;24.20;99.90
15409;DHT22;7803;48.130;13.788;2023-10-13T13:56:48;24.20;99.90
15409;DHT22;7803;48.130;13.788;2023-10-13T13:59:52;24.20;99.90
15409;DHT22;7803;48.130;13.788;2023-10-13T14:02:54;24.20;99.90
15409;DHT22;7803;48.130;13.788;2023-10-13T14:05:57;24.20;99.90
15409;DHT22;7803;48.130;13.788;2023-10-13T14:09:01;24.20;99.90
15409;DHT22;7803;48.130;13.788;2023-10-13T14:12:06;24.20;99.90
15409;DHT22;7803;48.130;13.788;2023-10-13T14:15:25;24.30;99.90
15409;DHT22;7803;48.130;13.788;2023-10-13T14:18:28;24.20;99.90
15409;DHT22;7803;48.130;13.788;2023-10-13T14:21:32;24.20;99.90
15409;DHT22;7803;48.130;13.788;2023-10-13T14:24:35;24.20;99.90
15409;DHT22;7803;48.130;13.788;2023-10-13T14:27:44;24.20;99.90
15409;DHT22;7803;48.130;13.788;2023-10-13T14:30:46;24.30;99.90
15409;DHT22;7803;48.130;13.788;2023-10-13T14:33:47;24.30;99.90
15409;DHT22;7803;48.130;13.788;2023-10-13T14:36:51;24.30;99.90
15409;DHT22;7803;48.130;13.788;2023-10-13T14:39:55;24.30;99.90
15409;DHT22;7803;48.130;13.788;2023-10-13T14:42:57;24.30;99.90
15409;DHT22;7803;48.130;13.788;2023-10-13T14:45:59;24.30;99.90
15409;DHT22;7803;48.130;13.788;2023-10-13T14:49:01;24.20;99.90
15409;DHT22;7803;48.130;13.788;2023-10-13T14:52:05;24.30;99.90
15409;DHT22;7803;48.130;13.788;2023-10-13T14:55:08;24.30;99.90
15409;DHT22;7803;48.130;13.788;2023-10-13T14:58:19;24.20;99.90
15409;DHT22;7803;48.130;13.788;2023-10-13T15:01:23;24.20;99.90
15409;DHT22;7803;48.130;13.788;2023-10-13T15:04:27;24.20;99.90
15409;DHT22;7803;48.130;13.788;2023-10-13T15:07:32;24.20;99.90
15409;DHT22;7803;48.130;13.788;2023-10-13T15:10:34;24.20;99.90
15409;DHT22;7803;48.130;13.788;2023-10-13T15:13:37;24.20;99.90
15409;DHT22;7803;48.130;13.788;2023-10-13T15:16:39;24.20;99.90
15409;DHT22;7803;48.130;13.788;2023-10-13T15:19:43;24.20;99.90
15409;DHT22;7803;48.130;13.788;2023-10-13T15:22:47;24.30;99.90
15409;DHT22;7803;48.130;13.788;2023-10-13T15:25:49;24.30;99.90
15409;DHT22;7803;48.130;13.788;2023-10-13T15:28:52;24.30;99.90
15409;DHT22;7803;48.130;13.788;2023-10-13T15:31:56;24.30;99.90
15409;DHT22;7803;48.130;13.788;2023-10-13T15:35:26;24.20;99.90
15409;DHT22;7803;48.130;13.788;2023-10-13T15:38:30;24.20;99.90
15409;DHT22;7803;48.130;13.788;2023-10-13T15:41:32;24.30;99.90
15409;DHT22;7803;48.130;13.788;2023-10-13T15:44:35;24.20;99.90
15409;DHT22;7803;48.130;13.788;2023-10-13T15:47:37;24.20;99.90
15409;DHT22;7803;48.130;13.788;2023-10-13T15:50:39;24.20;99.90
15409;DHT22;7803;48.130;13.788;2023-10-13T15:53:43;24.20;99.90
15409;DHT22;7803;48.130;13.788;2023-10-13T15:56:49;24.20;99.90
15409;DHT22;7803;48.130;13.788;2023-10-13T15:59:52;24.20;99.90
15409;DHT22;7803;48.130;13.788;2023-10-13T16:02:57;24.20;99.90
15409;DHT22;7803;48.130;13.788;2023-10-13T16:06:02;24.20;99.90
15409;DHT22;7803;48.130;13.788;2023-10-13T16:09:11;24.20;99.90
15409;DHT22;7803;48.130;13.788;2023-10-13T16:12:15;24.20;99.90
15409;DHT22;7803;48.130;13.788;2023-10-13T16:15:18;24.20;99.90
15409;DHT22;7803;48.130;13.788;2023-10-13T16:18:21;24.20;99.90
15409;DHT22;7803;48.130;13.788;2023-10-13T16:21:24;24.20;99.90
15409;DHT22;7803;48.130;13.788;2023-10-13T16:24:27;24.20;99.90
15409;DHT22;7803;48.130;13.788;2023-10-13T16:27:29;24.20;99.90
15409;DHT22;7803;48.130;13.788;2023-10-13T16:30:31;24.20;99.90
15409;DHT22;7803;48.130;13.788;2023-10-13T16:33:33;24.20;99.90
15409;DHT22;7803;48.130;13.788;2023-10-13T16:36:36;24.20;99.90
15409;DHT22;7803;48.130;13.788;2023-10-13T16:39:39;24.20;99.90
15409;DHT22;7803;48.130;13.788;2023-10-13T16:42:41;24.20;99.90
15409;DHT22;7803;48.130;13.788;2023-10-13T16:45:43;24.10;99.90
15409;DHT22;7803;48.130;13.788;2023-10-13T16:48:45;24.10;99.90
15409;DHT22;7803;48.130;13.788;2023-10-13T16:51:50;24.10;99.90
15409;DHT22;7803;48.130;13.788;2023-10-13T16:54:53;24.10;99.90
15409;DHT22;7803;48.130;13.788;2023-10-13T16:57:55;24.10;99.90
15409;DHT22;7803;48.130;13.788;2023-10-13T17:00:57;24.20;99.90
15409;DHT22;7803;48.130;13.788;2023-10-13T17:04:04;24.10;99.90
15409;DHT22;7803;48.130;13.788;2023-10-13T17:07:06;24.10;99.90
15409;DHT22;7803;48.130;13.788;2023-10-13T17:10:10;24.20;99.90
15409;DHT22;7803;48.130;13.788;2023-10-13T17:13:14;24.20;99.90
15409;DHT22;7803;48.130;13.788;2023-10-13T17:16:18;24.10;99.90
15409;DHT22;7803;48.130;13.788;2023-10-13T17:19:20;24.10;99.90
15409;DHT22;7803;48.130;13.788;2023-10-13T17:22:23;24.20;99.90
15409;DHT22;7803;48.130;13.788;2023-10-13T17:25:26;24.20;99.90
15409;DHT22;7803;48.130;13.788;2023-10-13T17:28:28;24.10;99.90
15409;DHT22;7803;48.130;13.788;2023-10-13T17:31:30;24.10;99.90
15409;DHT22;7803;48.130;13.788;2023-10-13T17:34:33;24.10;99.90
15409;DHT22;7803;48.130;13.788;2023-10-13T17:37:36;24.10;99.90
15409;DHT22;7803;48.130;13.788;2023-10-13T17:40:44;24.10;99.90
15409;DHT22;7803;48.130;13.788;2023-10-13T17:43:48;24.10;99.90
15409;DHT22;7803;48.130;13.788;2023-10-13T17:46:51;24.10;99.90
15409;DHT22;7803;48.130;13.788;2023-10-13T17:49:53;24.10;99.90
15409;DHT22;7803;48.130;13.788;2023-10-13T17:52:55;24.10;99.90
15409;DHT22;7803;48.130;13.788;2023-10-13T17:56:02;24.20;99.90
15409;DHT22;7803;48.130;13.788;2023-10-13T17:59:06;24.10;99.90
15409;DHT22;7803;48.130;13.788;2023-10-13T18:02:08;24.10;99.90
15409;DHT22;7803;48.130;13.788;2023-10-13T18:05:13;24.10;99.90
15409;DHT22;7803;48.130;13.788;2023-10-13T18:08:17;24.10;99.90
15409;DHT22;7803;48.130;13.788;2023-10-13T18:11:22;24.20;99.90
15409;DHT22;7803;48.130;13.788;2023-10-13T18:14:26;24.10;99.90
15409;DHT22;7803;48.130;13.788;2023-10-13T18:17:31;24.10;99.90
15409;DHT22;7803;48.130;13.788;2023-10-13T18:20:34;24.10;99.90
15409;DHT22;7803;48.130;13.788;2023-10-13T18:23:39;24.10;99.90
15409;DHT22;7803;48.130;13.788;2023-10-13T18:26:45;24.10;99.90
15409;DHT22;7803;48.130;13.788;2023-10-13T18:29:50;24.10;99.90
15409;DHT22;7803;48.130;13.788;2023-10-13T18:32:54;24.10;99.90
15409;DHT22;7803;48.130;13.788;2023-10-13T18:35:57;24.10;99.90
15409;DHT22;7803;48.130;13.788;2023-10-13T18:39:12;24.10;99.90
15409;DHT22;7803;48.130;13.788;2023-10-13T18:42:21;24.10;99.90
15409;DHT22;7803;48.130;13.788;2023-10-13T18:45:25;24.10;99.90
15409;DHT22;7803;48.130;13.788;2023-10-13T18:48:30;24.10;99.90
15409;DHT22;7803;48.130;13.788;2023-10-13T18:51:34;24.10;99.90
15409;DHT22;7803;48.130;13.788;2023-10-13T18:54:38;24.10;99.90
15409;DHT22;7803;48.130;13.788;2023-10-13T18:57:43;24.10;99.90
15409;DHT22;7803;48.130;13.788;2023-10-13T19:00:47;24.10;99.90
15409;DHT22;7803;48.130;13.788;2023-10-13T19:03:53;24.10;99.90
15409;DHT22;7803;48.130;13.788;2023-10-13T19:06:57;24.10;99.90
15409;DHT22;7803;48.130;13.788;2023-10-13T19:10:02;24.10;99.90
15409;DHT22;7803;48.130;13.788;2023-10-13T19:13:17;24.10;99.90
15409;DHT22;7803;48.130;13.788;2023-10-13T19:16:21;24.10;99.90
15409;DHT22;7803;48.130;13.788;2023-10-13T19:19:27;24.10;99.90
15409;DHT22;7803;48.130;13.788;2023-10-13T19:22:34;24.10;99.90
15409;DHT22;7803;48.130;13.788;2023-10-13T19:25:37;24.10;99.90
15409;DHT22;7803;48.130;13.788;2023-10-13T19:28:43;24.00;99.90
15409;DHT22;7803;48.130;13.788;2023-10-13T19:31:47;24.00;99.90
15409;DHT22;7803;48.130;13.788;2023-10-13T19:34:52;24.10;99.90
15409;DHT22;7803;48.130;13.788;2023-10-13T19:37:56;24.00;99.90
15409;DHT22;7803;48.130;13.788;2023-10-13T19:40:59;24.00;99.90
15409;DHT22;7803;48.130;13.788;2023-10-13T19:44:05;24.00;99.90
15409;DHT22;7803;48.130;13.788;2023-10-13T19:47:09;24.10;99.90